sensor_id;sensor_type;location;lat;lon;timestamp;P1;durP1;ratioP1;P2;durP2;ratioP2
68214;SDS011;55036;52.138;5.236;2023-08-01T00:00:10;7.28;;;2.47;;
68214;SDS011;55036;52.138;5.236;2023-08-01T00:02:37;6.68;;;2.58;;
68214;SDS011;55036;52.138;5.236;2023-08-01T00:05:05;8.00;;;2.85;;
68214;SDS011;55036;52.138;5.236;2023-08-01T00:07:32;5.55;;;2.53;;
68214;SDS011;55036;52.138;5.236;2023-08-01T00:10:03;8.52;;;2.83;;
68214;SDS011;55036;52.138;5.236;2023-08-01T00:12:30;7.32;;;2.90;;
68214;SDS011;55036;52.138;5.236;2023-08-01T00:14:57;5.47;;;2.88;;
68214;SDS011;55036;52.138;5.236;2023-08-01T00:17:24;13.85;;;3.10;;
68214;SDS011;55036;52.138;5.236;2023-08-01T00:19:51;8.20;;;2.92;;
68214;SDS011;55036;52.138;5.236;2023-08-01T00:22:17;8.32;;;2.80;;
68214;SDS011;55036;52.138;5.236;2023-08-01T00:24:44;6.15;;;2.63;;
68214;SDS011;55036;52.138;5.236;2023-08-01T00:27:13;11.10;;;3.42;;
68214;SDS011;55036;52.138;5.236;2023-08-01T00:29:40;9.70;;;3.03;;
68214;SDS011;55036;52.138;5.236;2023-08-01T00:32:07;7.03;;;2.72;;
68214;SDS011;55036;52.138;5.236;2023-08-01T00:34:34;7.75;;;2.70;;
68214;SDS011;55036;52.138;5.236;2023-08-01T00:37:01;11.38;;;3.00;;
68214;SDS011;55036;52.138;5.236;2023-08-01T00:39:28;8.52;;;2.88;;
68214;SDS011;55036;52.138;5.236;2023-08-01T00:41:55;7.45;;;2.85;;
68214;SDS011;55036;52.138;5.236;2023-08-01T01:19:34;6.55;;;3.30;;
68214;SDS011;55036;52.138;5.236;2023-08-01T01:22:01;9.75;;;3.38;;
68214;SDS011;55036;52.138;5.236;2023-08-01T01:24:30;7.18;;;3.10;;
68214;SDS011;55036;52.138;5.236;2023-08-01T01:26:59;6.40;;;2.85;;
68214;SDS011;55036;52.138;5.236;2023-08-01T01:29:29;9.27;;;3.40;;
68214;SDS011;55036;52.138;5.236;2023-08-01T01:31:59;8.43;;;3.40;;
68214;SDS011;55036;52.138;5.236;2023-08-01T01:34:27;9.05;;;3.33;;
68214;SDS011;55036;52.138;5.236;2023-08-01T01:36:54;8.95;;;4.00;;
68214;SDS011;55036;52.138;5.236;2023-08-01T01:39:21;9.43;;;3.70;;
68214;SDS011;55036;52.138;5.236;2023-08-01T01:41:48;9.25;;;3.25;;
68214;SDS011;55036;52.138;5.236;2023-08-01T01:44:14;6.15;;;3.10;;
68214;SDS011;55036;52.138;5.236;2023-08-01T01:46:41;8.95;;;4.10;;
68214;SDS011;55036;52.138;5.236;2023-08-01T01:49:08;8.75;;;3.45;;
68214;SDS011;55036;52.138;5.236;2023-08-01T01:51:35;8.52;;;3.72;;
68214;SDS011;55036;52.138;5.236;2023-08-01T01:54:02;8.25;;;3.60;;
68214;SDS011;55036;52.138;5.236;2023-08-01T01:56:29;11.00;;;3.90;;
68214;SDS011;55036;52.138;5.236;2023-08-01T01:58:56;5.75;;;3.50;;
68214;SDS011;55036;52.138;5.236;2023-08-01T02:01:22;6.72;;;3.35;;
68214;SDS011;55036;52.138;5.236;2023-08-01T02:03:49;9.90;;;3.67;;
68214;SDS011;55036;52.138;5.236;2023-08-01T02:06:16;6.72;;;3.78;;
68214;SDS011;55036;52.138;5.236;2023-08-01T02:08:42;10.55;;;4.07;;
68214;SDS011;55036;52.138;5.236;2023-08-01T02:11:09;9.50;;;3.80;;
68214;SDS011;55036;52.138;5.236;2023-08-01T02:13:36;12.00;;;3.53;;
68214;SDS011;55036;52.138;5.236;2023-08-01T02:16:03;11.93;;;4.05;;
68214;SDS011;55036;52.138;5.236;2023-08-01T02:18:30;9.52;;;4.15;;
68214;SDS011;55036;52.138;5.236;2023-08-01T02:20:56;12.32;;;3.42;;
68214;SDS011;55036;52.138;5.236;2023-08-01T02:23:23;9.23;;;3.88;;
68214;SDS011;55036;52.138;5.236;2023-08-01T02:25:51;13.48;;;4.25;;
68214;SDS011;55036;52.138;5.236;2023-08-01T02:28:17;12.00;;;4.05;;
68214;SDS011;55036;52.138;5.236;2023-08-01T02:30:44;10.00;;;3.22;;
68214;SDS011;55036;52.138;5.236;2023-08-01T02:33:11;12.27;;;3.63;;
68214;SDS011;55036;52.138;5.236;2023-08-01T02:35:38;7.35;;;3.25;;
68214;SDS011;55036;52.138;5.236;2023-08-01T02:38:04;8.73;;;3.90;;
68214;SDS011;55036;52.138;5.236;2023-08-01T02:40:31;8.85;;;3.63;;
68214;SDS011;55036;52.138;5.236;2023-08-01T02:42:58;7.65;;;3.30;;
68214;SDS011;55036;52.138;5.236;2023-08-01T02:45:25;7.20;;;3.55;;
68214;SDS011;55036;52.138;5.236;2023-08-01T02:47:51;7.95;;;3.42;;
68214;SDS011;55036;52.138;5.236;2023-08-01T02:50:20;7.72;;;3.20;;
68214;SDS011;55036;52.138;5.236;2023-08-01T02:52:47;8.77;;;3.38;;
68214;SDS011;55036;52.138;5.236;2023-08-01T02:55:14;6.82;;;3.47;;
68214;SDS011;55036;52.138;5.236;2023-08-01T02:57:41;10.85;;;2.90;;
68214;SDS011;55036;52.138;5.236;2023-08-01T03:00:07;6.32;;;2.70;;
68214;SDS011;55036;52.138;5.236;2023-08-01T03:02:38;7.18;;;2.72;;
68214;SDS011;55036;52.138;5.236;2023-08-01T03:05:06;6.68;;;3.17;;
68214;SDS011;55036;52.138;5.236;2023-08-01T03:07:34;6.47;;;3.13;;
68214;SDS011;55036;52.138;5.236;2023-08-01T03:10:01;5.30;;;2.90;;
68214;SDS011;55036;52.138;5.236;2023-08-01T03:12:28;6.53;;;2.80;;
68214;SDS011;55036;52.138;5.236;2023-08-01T03:14:55;9.45;;;3.22;;
68214;SDS011;55036;52.138;5.236;2023-08-01T03:17:21;9.77;;;3.50;;
68214;SDS011;55036;52.138;5.236;2023-08-01T03:19:48;9.55;;;3.42;;
68214;SDS011;55036;52.138;5.236;2023-08-01T03:22:15;7.53;;;3.33;;
68214;SDS011;55036;52.138;5.236;2023-08-01T03:24:42;10.25;;;3.33;;
68214;SDS011;55036;52.138;5.236;2023-08-01T03:27:09;6.45;;;2.92;;
68214;SDS011;55036;52.138;5.236;2023-08-01T03:29:36;9.98;;;3.15;;
68214;SDS011;55036;52.138;5.236;2023-08-01T03:32:03;5.18;;;3.05;;
68214;SDS011;55036;52.138;5.236;2023-08-01T03:34:30;7.05;;;2.95;;
68214;SDS011;55036;52.138;5.236;2023-08-01T03:36:57;9.45;;;3.55;;
68214;SDS011;55036;52.138;5.236;2023-08-01T03:39:24;10.98;;;3.85;;
68214;SDS011;55036;52.138;5.236;2023-08-01T03:41:51;11.38;;;4.40;;
68214;SDS011;55036;52.138;5.236;2023-08-01T03:44:18;12.27;;;4.05;;
68214;SDS011;55036;52.138;5.236;2023-08-01T03:46:44;9.52;;;4.38;;
68214;SDS011;55036;52.138;5.236;2023-08-01T03:49:12;12.45;;;4.60;;
68214;SDS011;55036;52.138;5.236;2023-08-01T03:51:40;9.63;;;4.55;;
68214;SDS011;55036;52.138;5.236;2023-08-01T03:54:06;13.60;;;4.90;;
68214;SDS011;55036;52.138;5.236;2023-08-01T03:56:39;13.80;;;5.30;;
68214;SDS011;55036;52.138;5.236;2023-08-01T03:59:10;16.02;;;4.78;;
68214;SDS011;55036;52.138;5.236;2023-08-01T04:01:41;13.50;;;4.07;;
68214;SDS011;55036;52.138;5.236;2023-08-01T04:04:08;14.55;;;5.43;;
68214;SDS011;55036;52.138;5.236;2023-08-01T04:06:36;14.20;;;4.78;;
68214;SDS011;55036;52.138;5.236;2023-08-01T04:09:04;13.75;;;4.40;;
68214;SDS011;55036;52.138;5.236;2023-08-01T04:11:32;11.27;;;4.38;;
68214;SDS011;55036;52.138;5.236;2023-08-01T04:13:59;10.23;;;5.40;;
68214;SDS011;55036;52.138;5.236;2023-08-01T04:16:26;14.45;;;4.25;;
68214;SDS011;55036;52.138;5.236;2023-08-01T04:18:52;12.00;;;4.25;;
68214;SDS011;55036;52.138;5.236;2023-08-01T04:21:19;15.27;;;4.70;;
68214;SDS011;55036;52.138;5.236;2023-08-01T04:23:46;15.27;;;4.97;;
68214;SDS011;55036;52.138;5.236;2023-08-01T04:26:13;11.70;;;4.88;;
68214;SDS011;55036;52.138;5.236;2023-08-01T04:28:39;13.70;;;4.88;;
68214;SDS011;55036;52.138;5.236;2023-08-01T04:31:06;15.38;;;4.95;;
68214;SDS011;55036;52.138;5.236;2023-08-01T04:33:33;16.45;;;5.55;;
68214;SDS011;55036;52.138;5.236;2023-08-01T04:36:00;13.68;;;4.40;;
68214;SDS011;55036;52.138;5.236;2023-08-01T04:38:28;15.48;;;5.13;;
68214;SDS011;55036;52.138;5.236;2023-08-01T04:40:54;12.00;;;4.90;;
68214;SDS011;55036;52.138;5.236;2023-08-01T04:43:21;12.73;;;4.93;;
68214;SDS011;55036;52.138;5.236;2023-08-01T04:45:48;12.65;;;4.32;;
68214;SDS011;55036;52.138;5.236;2023-08-01T04:48:15;15.38;;;5.32;;
68214;SDS011;55036;52.138;5.236;2023-08-01T04:50:41;13.13;;;5.13;;
68214;SDS011;55036;52.138;5.236;2023-08-01T04:53:08;17.45;;;5.70;;
68214;SDS011;55036;52.138;5.236;2023-08-01T04:55:35;13.70;;;5.47;;
68214;SDS011;55036;52.138;5.236;2023-08-01T04:58:02;18.02;;;4.90;;
68214;SDS011;55036;52.138;5.236;2023-08-01T05:00:29;17.48;;;5.05;;
68214;SDS011;55036;52.138;5.236;2023-08-01T05:02:56;11.65;;;4.88;;
68214;SDS011;55036;52.138;5.236;2023-08-01T05:05:23;17.08;;;5.53;;
68214;SDS011;55036;52.138;5.236;2023-08-01T05:07:49;14.07;;;5.15;;
68214;SDS011;55036;52.138;5.236;2023-08-01T05:10:16;15.10;;;5.55;;
68214;SDS011;55036;52.138;5.236;2023-08-01T05:12:43;12.60;;;5.47;;
68214;SDS011;55036;52.138;5.236;2023-08-01T05:15:09;17.30;;;4.57;;
68214;SDS011;55036;52.138;5.236;2023-08-01T05:17:36;13.85;;;5.55;;
68214;SDS011;55036;52.138;5.236;2023-08-01T05:20:03;18.30;;;5.85;;
68214;SDS011;55036;52.138;5.236;2023-08-01T05:22:31;13.05;;;4.90;;
68214;SDS011;55036;52.138;5.236;2023-08-01T05:24:57;12.10;;;4.53;;
68214;SDS011;55036;52.138;5.236;2023-08-01T05:27:24;14.63;;;4.85;;
68214;SDS011;55036;52.138;5.236;2023-08-01T05:29:51;14.80;;;4.43;;
68214;SDS011;55036;52.138;5.236;2023-08-01T05:32:18;11.90;;;4.35;;
68214;SDS011;55036;52.138;5.236;2023-08-01T05:34:44;19.92;;;4.93;;
68214;SDS011;55036;52.138;5.236;2023-08-01T05:37:11;11.93;;;4.25;;
68214;SDS011;55036;52.138;5.236;2023-08-01T05:39:38;11.38;;;3.97;;
68214;SDS011;55036;52.138;5.236;2023-08-01T05:42:05;11.10;;;4.35;;
68214;SDS011;55036;52.138;5.236;2023-08-01T05:44:34;16.27;;;4.50;;
68214;SDS011;55036;52.138;5.236;2023-08-01T05:47:01;11.25;;;4.03;;
68214;SDS011;55036;52.138;5.236;2023-08-01T05:49:28;12.60;;;3.88;;
68214;SDS011;55036;52.138;5.236;2023-08-01T05:51:56;13.43;;;3.95;;
68214;SDS011;55036;52.138;5.236;2023-08-01T05:54:23;11.40;;;3.70;;
68214;SDS011;55036;52.138;5.236;2023-08-01T05:56:49;9.55;;;3.58;;
68214;SDS011;55036;52.138;5.236;2023-08-01T05:59:16;12.75;;;3.88;;
68214;SDS011;55036;52.138;5.236;2023-08-01T06:01:43;10.88;;;3.47;;
68214;SDS011;55036;52.138;5.236;2023-08-01T06:04:10;12.63;;;4.10;;
68214;SDS011;55036;52.138;5.236;2023-08-01T06:06:37;11.60;;;3.83;;
68214;SDS011;55036;52.138;5.236;2023-08-01T06:09:04;15.10;;;3.97;;
68214;SDS011;55036;52.138;5.236;2023-08-01T06:11:31;19.20;;;4.15;;
68214;SDS011;55036;52.138;5.236;2023-08-01T06:13:59;13.63;;;3.55;;
68214;SDS011;55036;52.138;5.236;2023-08-01T06:16:26;10.02;;;3.35;;
68214;SDS011;55036;52.138;5.236;2023-08-01T06:18:53;15.48;;;3.85;;
68214;SDS011;55036;52.138;5.236;2023-08-01T06:21:20;12.27;;;3.60;;
68214;SDS011;55036;52.138;5.236;2023-08-01T06:23:47;8.35;;;3.92;;
68214;SDS011;55036;52.138;5.236;2023-08-01T06:26:13;12.35;;;3.40;;
68214;SDS011;55036;52.138;5.236;2023-08-01T06:28:41;9.30;;;3.05;;
68214;SDS011;55036;52.138;5.236;2023-08-01T06:31:08;10.02;;;3.08;;
68214;SDS011;55036;52.138;5.236;2023-08-01T06:33:35;13.40;;;3.03;;
68214;SDS011;55036;52.138;5.236;2023-08-01T06:36:02;10.88;;;4.00;;
68214;SDS011;55036;52.138;5.236;2023-08-01T06:38:29;8.23;;;3.22;;
68214;SDS011;55036;52.138;5.236;2023-08-01T06:40:56;8.68;;;3.03;;
68214;SDS011;55036;52.138;5.236;2023-08-01T06:43:22;6.97;;;2.60;;
68214;SDS011;55036;52.138;5.236;2023-08-01T06:45:50;12.55;;;3.47;;
68214;SDS011;55036;52.138;5.236;2023-08-01T06:48:17;9.32;;;3.25;;
68214;SDS011;55036;52.138;5.236;2023-08-01T06:50:44;9.40;;;2.70;;
68214;SDS011;55036;52.138;5.236;2023-08-01T06:53:11;10.38;;;3.60;;
68214;SDS011;55036;52.138;5.236;2023-08-01T06:55:38;11.18;;;3.33;;
68214;SDS011;55036;52.138;5.236;2023-08-01T06:58:05;10.40;;;3.42;;
68214;SDS011;55036;52.138;5.236;2023-08-01T07:00:32;11.88;;;2.83;;
68214;SDS011;55036;52.138;5.236;2023-08-01T07:02:59;13.77;;;3.72;;
68214;SDS011;55036;52.138;5.236;2023-08-01T07:05:26;12.07;;;3.70;;
68214;SDS011;55036;52.138;5.236;2023-08-01T07:07:52;8.20;;;3.10;;
68214;SDS011;55036;52.138;5.236;2023-08-01T07:10:19;7.68;;;2.92;;
68214;SDS011;55036;52.138;5.236;2023-08-01T07:12:46;10.00;;;2.97;;
68214;SDS011;55036;52.138;5.236;2023-08-01T07:15:13;11.07;;;2.75;;
68214;SDS011;55036;52.138;5.236;2023-08-01T07:17:40;8.80;;;3.10;;
68214;SDS011;55036;52.138;5.236;2023-08-01T07:20:07;10.30;;;3.13;;
68214;SDS011;55036;52.138;5.236;2023-08-01T07:22:34;11.98;;;2.90;;
68214;SDS011;55036;52.138;5.236;2023-08-01T07:25:01;8.32;;;2.83;;
68214;SDS011;55036;52.138;5.236;2023-08-01T07:27:29;7.60;;;2.83;;
68214;SDS011;55036;52.138;5.236;2023-08-01T07:29:55;10.43;;;2.70;;
68214;SDS011;55036;52.138;5.236;2023-08-01T07:32:22;10.35;;;2.70;;
68214;SDS011;55036;52.138;5.236;2023-08-01T07:34:49;8.23;;;2.63;;
68214;SDS011;55036;52.138;5.236;2023-08-01T07:37:16;8.98;;;3.05;;
68214;SDS011;55036;52.138;5.236;2023-08-01T07:39:42;8.52;;;3.38;;
68214;SDS011;55036;52.138;5.236;2023-08-01T07:42:09;9.88;;;3.10;;
68214;SDS011;55036;52.138;5.236;2023-08-01T07:44:36;10.80;;;3.03;;
68214;SDS011;55036;52.138;5.236;2023-08-01T07:47:03;14.57;;;4.03;;
68214;SDS011;55036;52.138;5.236;2023-08-01T07:49:30;8.63;;;3.15;;
68214;SDS011;55036;52.138;5.236;2023-08-01T07:51:56;8.13;;;2.90;;
68214;SDS011;55036;52.138;5.236;2023-08-01T07:54:23;10.60;;;2.80;;
68214;SDS011;55036;52.138;5.236;2023-08-01T07:56:50;7.57;;;2.80;;
68214;SDS011;55036;52.138;5.236;2023-08-01T07:59:17;10.55;;;3.28;;
68214;SDS011;55036;52.138;5.236;2023-08-01T08:01:44;9.65;;;2.67;;
68214;SDS011;55036;52.138;5.236;2023-08-01T08:04:11;6.82;;;2.60;;
68214;SDS011;55036;52.138;5.236;2023-08-01T08:06:38;6.50;;;2.40;;
68214;SDS011;55036;52.138;5.236;2023-08-01T08:09:05;6.35;;;2.88;;
68214;SDS011;55036;52.138;5.236;2023-08-01T08:11:32;8.40;;;2.40;;
68214;SDS011;55036;52.138;5.236;2023-08-01T08:13:59;6.13;;;2.00;;
68214;SDS011;55036;52.138;5.236;2023-08-01T08:16:26;7.13;;;2.25;;
68214;SDS011;55036;52.138;5.236;2023-08-01T08:18:53;5.57;;;2.08;;
68214;SDS011;55036;52.138;5.236;2023-08-01T08:21:20;5.85;;;2.13;;
68214;SDS011;55036;52.138;5.236;2023-08-01T08:23:46;5.50;;;2.35;;
68214;SDS011;55036;52.138;5.236;2023-08-01T08:26:13;5.80;;;1.88;;
68214;SDS011;55036;52.138;5.236;2023-08-01T08:28:40;4.95;;;1.60;;
68214;SDS011;55036;52.138;5.236;2023-08-01T08:31:08;10.40;;;2.30;;
68214;SDS011;55036;52.138;5.236;2023-08-01T08:33:35;5.43;;;1.98;;
68214;SDS011;55036;52.138;5.236;2023-08-01T08:36:02;6.75;;;2.60;;
68214;SDS011;55036;52.138;5.236;2023-08-01T08:38:29;5.10;;;2.03;;
68214;SDS011;55036;52.138;5.236;2023-08-01T08:43:31;7.63;;;2.05;;
68214;SDS011;55036;52.138;5.236;2023-08-01T08:46:00;11.63;;;2.35;;
68214;SDS011;55036;52.138;5.236;2023-08-01T08:48:27;8.38;;;2.13;;
68214;SDS011;55036;52.138;5.236;2023-08-01T08:50:58;7.28;;;1.77;;
68214;SDS011;55036;52.138;5.236;2023-08-01T08:53:26;5.38;;;1.85;;
68214;SDS011;55036;52.138;5.236;2023-08-01T08:55:53;5.50;;;1.75;;
68214;SDS011;55036;52.138;5.236;2023-08-01T08:58:20;10.88;;;2.45;;
68214;SDS011;55036;52.138;5.236;2023-08-01T09:00:48;9.10;;;1.88;;
68214;SDS011;55036;52.138;5.236;2023-08-01T09:03:15;8.02;;;2.58;;
68214;SDS011;55036;52.138;5.236;2023-08-01T09:05:49;10.68;;;2.45;;
68214;SDS011;55036;52.138;5.236;2023-08-01T09:08:19;7.80;;;1.83;;
68214;SDS011;55036;52.138;5.236;2023-08-01T09:10:48;11.57;;;2.15;;
68214;SDS011;55036;52.138;5.236;2023-08-01T09:13:14;10.88;;;2.75;;
68214;SDS011;55036;52.138;5.236;2023-08-01T09:15:41;6.60;;;2.03;;
68214;SDS011;55036;52.138;5.236;2023-08-01T09:18:10;10.50;;;2.55;;
68214;SDS011;55036;52.138;5.236;2023-08-01T09:20:41;7.03;;;2.30;;
68214;SDS011;55036;52.138;5.236;2023-08-01T09:23:16;5.68;;;2.03;;
68214;SDS011;55036;52.138;5.236;2023-08-01T09:25:43;6.43;;;2.35;;
68214;SDS011;55036;52.138;5.236;2023-08-01T09:28:17;7.38;;;2.22;;
68214;SDS011;55036;52.138;5.236;2023-08-01T09:30:45;2.60;;;1.35;;
68214;SDS011;55036;52.138;5.236;2023-08-01T09:33:13;6.57;;;2.05;;
68214;SDS011;55036;52.138;5.236;2023-08-01T09:35:40;7.72;;;2.90;;
68214;SDS011;55036;52.138;5.236;2023-08-01T09:38:07;7.80;;;2.10;;
68214;SDS011;55036;52.138;5.236;2023-08-01T09:40:41;7.53;;;2.58;;
68214;SDS011;55036;52.138;5.236;2023-08-01T09:43:09;8.65;;;2.47;;
68214;SDS011;55036;52.138;5.236;2023-08-01T09:45:38;7.90;;;2.63;;
68214;SDS011;55036;52.138;5.236;2023-08-01T09:48:26;8.18;;;2.22;;
68214;SDS011;55036;52.138;5.236;2023-08-01T09:51:15;11.25;;;2.60;;
68214;SDS011;55036;52.138;5.236;2023-08-01T09:53:49;9.27;;;2.35;;
68214;SDS011;55036;52.138;5.236;2023-08-01T09:56:24;8.40;;;2.63;;
68214;SDS011;55036;52.138;5.236;2023-08-01T09:58:53;8.32;;;2.60;;
68214;SDS011;55036;52.138;5.236;2023-08-01T10:01:22;9.60;;;2.80;;
68214;SDS011;55036;52.138;5.236;2023-08-01T10:03:52;11.18;;;2.60;;
68214;SDS011;55036;52.138;5.236;2023-08-01T10:06:23;8.00;;;2.38;;
68214;SDS011;55036;52.138;5.236;2023-08-01T10:08:54;8.43;;;2.33;;
68214;SDS011;55036;52.138;5.236;2023-08-01T10:11:22;7.88;;;2.50;;
68214;SDS011;55036;52.138;5.236;2023-08-01T10:13:49;9.05;;;2.20;;
68214;SDS011;55036;52.138;5.236;2023-08-01T10:16:16;7.28;;;2.40;;
68214;SDS011;55036;52.138;5.236;2023-08-01T10:18:43;6.63;;;1.67;;
68214;SDS011;55036;52.138;5.236;2023-08-01T10:21:13;7.63;;;2.40;;
68214;SDS011;55036;52.138;5.236;2023-08-01T10:23:42;7.68;;;2.25;;
68214;SDS011;55036;52.138;5.236;2023-08-01T10:26:11;3.85;;;2.00;;
68214;SDS011;55036;52.138;5.236;2023-08-01T10:28:40;7.88;;;1.77;;
68214;SDS011;55036;52.138;5.236;2023-08-01T10:31:16;5.60;;;1.88;;
68214;SDS011;55036;52.138;5.236;2023-08-01T10:33:45;6.20;;;2.22;;
68214;SDS011;55036;52.138;5.236;2023-08-01T10:38:47;9.77;;;2.45;;
68214;SDS011;55036;52.138;5.236;2023-08-01T10:41:25;6.72;;;1.40;;
68214;SDS011;55036;52.138;5.236;2023-08-01T10:46:51;4.43;;;1.35;;
68214;SDS011;55036;52.138;5.236;2023-08-01T10:49:18;8.45;;;2.53;;
68214;SDS011;55036;52.138;5.236;2023-08-01T10:51:47;4.85;;;1.67;;
68214;SDS011;55036;52.138;5.236;2023-08-01T10:54:18;4.53;;;1.58;;
68214;SDS011;55036;52.138;5.236;2023-08-01T10:56:50;7.00;;;1.90;;
68214;SDS011;55036;52.138;5.236;2023-08-01T10:59:19;8.50;;;2.20;;
68214;SDS011;55036;52.138;5.236;2023-08-01T11:01:48;5.70;;;1.98;;
68214;SDS011;55036;52.138;5.236;2023-08-01T11:04:17;6.85;;;2.33;;
68214;SDS011;55036;52.138;5.236;2023-08-01T11:06:48;7.60;;;2.00;;
68214;SDS011;55036;52.138;5.236;2023-08-01T11:11:44;5.97;;;1.65;;
68214;SDS011;55036;52.138;5.236;2023-08-01T11:14:13;8.00;;;2.05;;
68214;SDS011;55036;52.138;5.236;2023-08-01T11:16:40;8.35;;;2.05;;
68214;SDS011;55036;52.138;5.236;2023-08-01T11:19:22;6.15;;;1.85;;
68214;SDS011;55036;52.138;5.236;2023-08-01T11:21:53;4.05;;;1.63;;
68214;SDS011;55036;52.138;5.236;2023-08-01T11:24:25;5.82;;;1.85;;
68214;SDS011;55036;52.138;5.236;2023-08-01T11:26:53;5.07;;;1.80;;
68214;SDS011;55036;52.138;5.236;2023-08-01T11:29:20;7.82;;;2.42;;
68214;SDS011;55036;52.138;5.236;2023-08-01T11:31:52;5.10;;;1.65;;
68214;SDS011;55036;52.138;5.236;2023-08-01T11:34:20;6.35;;;1.98;;
68214;SDS011;55036;52.138;5.236;2023-08-01T11:36:47;7.53;;;1.77;;
68214;SDS011;55036;52.138;5.236;2023-08-01T11:39:14;8.68;;;1.83;;
68214;SDS011;55036;52.138;5.236;2023-08-01T11:41:42;6.32;;;1.70;;
68214;SDS011;55036;52.138;5.236;2023-08-01T11:44:10;5.45;;;1.83;;
68214;SDS011;55036;52.138;5.236;2023-08-01T11:46:38;5.10;;;1.73;;
68214;SDS011;55036;52.138;5.236;2023-08-01T11:49:06;5.95;;;2.30;;
68214;SDS011;55036;52.138;5.236;2023-08-01T11:51:40;5.05;;;1.58;;
68214;SDS011;55036;52.138;5.236;2023-08-01T11:54:09;7.30;;;2.42;;
68214;SDS011;55036;52.138;5.236;2023-08-01T11:56:37;7.40;;;2.05;;
68214;SDS011;55036;52.138;5.236;2023-08-01T11:59:12;6.78;;;1.67;;
68214;SDS011;55036;52.138;5.236;2023-08-01T12:01:41;10.50;;;2.33;;
68214;SDS011;55036;52.138;5.236;2023-08-01T12:04:09;7.40;;;1.80;;
68214;SDS011;55036;52.138;5.236;2023-08-01T12:06:36;7.40;;;1.95;;
68214;SDS011;55036;52.138;5.236;2023-08-01T12:09:06;10.48;;;2.00;;
68214;SDS011;55036;52.138;5.236;2023-08-01T12:11:37;7.55;;;2.30;;
68214;SDS011;55036;52.138;5.236;2023-08-01T12:14:06;7.97;;;2.28;;
68214;SDS011;55036;52.138;5.236;2023-08-01T12:16:38;6.60;;;1.75;;
68214;SDS011;55036;52.138;5.236;2023-08-01T12:19:11;8.18;;;1.85;;
68214;SDS011;55036;52.138;5.236;2023-08-01T12:21:43;9.02;;;2.10;;
68214;SDS011;55036;52.138;5.236;2023-08-01T12:24:10;7.97;;;2.20;;
68214;SDS011;55036;52.138;5.236;2023-08-01T12:26:37;6.75;;;1.88;;
68214;SDS011;55036;52.138;5.236;2023-08-01T12:29:04;8.25;;;1.73;;
68214;SDS011;55036;52.138;5.236;2023-08-01T12:31:31;6.00;;;1.70;;
68214;SDS011;55036;52.138;5.236;2023-08-01T12:33:58;7.25;;;1.80;;
68214;SDS011;55036;52.138;5.236;2023-08-01T12:36:25;6.72;;;1.50;;
68214;SDS011;55036;52.138;5.236;2023-08-01T12:38:52;7.35;;;1.92;;
68214;SDS011;55036;52.138;5.236;2023-08-01T12:41:19;3.30;;;1.45;;
68214;SDS011;55036;52.138;5.236;2023-08-01T12:43:46;3.50;;;1.40;;
68214;SDS011;55036;52.138;5.236;2023-08-01T12:46:13;4.40;;;1.67;;
68214;SDS011;55036;52.138;5.236;2023-08-01T12:48:40;6.45;;;1.80;;
68214;SDS011;55036;52.138;5.236;2023-08-01T12:51:07;6.22;;;1.73;;
68214;SDS011;55036;52.138;5.236;2023-08-01T12:53:34;4.40;;;1.55;;
68214;SDS011;55036;52.138;5.236;2023-08-01T12:56:01;4.57;;;1.45;;
68214;SDS011;55036;52.138;5.236;2023-08-01T12:58:29;7.25;;;1.75;;
68214;SDS011;55036;52.138;5.236;2023-08-01T13:00:56;4.82;;;1.85;;
68214;SDS011;55036;52.138;5.236;2023-08-01T13:03:23;5.18;;;1.85;;
68214;SDS011;55036;52.138;5.236;2023-08-01T13:05:49;8.52;;;2.50;;
68214;SDS011;55036;52.138;5.236;2023-08-01T13:08:16;7.60;;;2.10;;
68214;SDS011;55036;52.138;5.236;2023-08-01T13:10:43;8.77;;;2.15;;
68214;SDS011;55036;52.138;5.236;2023-08-01T13:13:12;5.50;;;2.22;;
68214;SDS011;55036;52.138;5.236;2023-08-01T13:15:39;7.53;;;2.33;;
68214;SDS011;55036;52.138;5.236;2023-08-01T13:18:06;6.65;;;2.00;;
68214;SDS011;55036;52.138;5.236;2023-08-01T13:20:32;7.90;;;2.53;;
68214;SDS011;55036;52.138;5.236;2023-08-01T13:23:02;8.88;;;2.58;;
68214;SDS011;55036;52.138;5.236;2023-08-01T13:25:29;10.45;;;2.67;;
68214;SDS011;55036;52.138;5.236;2023-08-01T13:27:56;9.77;;;2.80;;
68214;SDS011;55036;52.138;5.236;2023-08-01T13:30:23;7.45;;;2.38;;
68214;SDS011;55036;52.138;5.236;2023-08-01T13:32:49;8.40;;;2.30;;
68214;SDS011;55036;52.138;5.236;2023-08-01T13:35:16;6.00;;;1.75;;
68214;SDS011;55036;52.138;5.236;2023-08-01T13:37:43;7.80;;;2.00;;
68214;SDS011;55036;52.138;5.236;2023-08-01T13:40:11;4.68;;;2.03;;
68214;SDS011;55036;52.138;5.236;2023-08-01T13:42:40;5.15;;;1.60;;
68214;SDS011;55036;52.138;5.236;2023-08-01T13:45:07;6.47;;;1.67;;
68214;SDS011;55036;52.138;5.236;2023-08-01T13:47:34;5.13;;;1.63;;
68214;SDS011;55036;52.138;5.236;2023-08-01T13:50:01;5.93;;;1.60;;
68214;SDS011;55036;52.138;5.236;2023-08-01T13:52:28;5.85;;;1.48;;
68214;SDS011;55036;52.138;5.236;2023-08-01T13:54:54;6.47;;;1.58;;
68214;SDS011;55036;52.138;5.236;2023-08-01T13:57:21;7.25;;;2.20;;
68214;SDS011;55036;52.138;5.236;2023-08-01T13:59:50;8.05;;;1.70;;
68214;SDS011;55036;52.138;5.236;2023-08-01T14:02:35;6.45;;;1.50;;
68214;SDS011;55036;52.138;5.236;2023-08-01T14:05:02;8.98;;;1.52;;
68214;SDS011;55036;52.138;5.236;2023-08-01T14:07:29;6.28;;;1.90;;
68214;SDS011;55036;52.138;5.236;2023-08-01T14:09:56;8.02;;;1.90;;
68214;SDS011;55036;52.138;5.236;2023-08-01T14:12:23;6.20;;;2.25;;
68214;SDS011;55036;52.138;5.236;2023-08-01T14:14:50;5.75;;;1.67;;
68214;SDS011;55036;52.138;5.236;2023-08-01T14:17:17;5.60;;;1.35;;
68214;SDS011;55036;52.138;5.236;2023-08-01T14:19:44;6.07;;;1.73;;
68214;SDS011;55036;52.138;5.236;2023-08-01T14:22:11;7.47;;;2.08;;
68214;SDS011;55036;52.138;5.236;2023-08-01T14:24:37;5.70;;;1.95;;
68214;SDS011;55036;52.138;5.236;2023-08-01T14:27:04;9.65;;;2.30;;
68214;SDS011;55036;52.138;5.236;2023-08-01T14:29:31;7.78;;;2.35;;
68214;SDS011;55036;52.138;5.236;2023-08-01T14:31:58;4.95;;;1.95;;
68214;SDS011;55036;52.138;5.236;2023-08-01T14:34:25;6.20;;;1.60;;
68214;SDS011;55036;52.138;5.236;2023-08-01T14:36:51;6.60;;;1.50;;
68214;SDS011;55036;52.138;5.236;2023-08-01T14:39:18;7.55;;;1.80;;
68214;SDS011;55036;52.138;5.236;2023-08-01T14:41:49;9.63;;;2.35;;
68214;SDS011;55036;52.138;5.236;2023-08-01T14:44:19;4.23;;;1.50;;
68214;SDS011;55036;52.138;5.236;2023-08-01T14:46:45;6.57;;;1.63;;
68214;SDS011;55036;52.138;5.236;2023-08-01T14:49:12;5.13;;;1.48;;
68214;SDS011;55036;52.138;5.236;2023-08-01T14:51:39;9.20;;;1.92;;
68214;SDS011;55036;52.138;5.236;2023-08-01T14:54:06;7.00;;;1.67;;
68214;SDS011;55036;52.138;5.236;2023-08-01T14:56:33;3.97;;;1.35;;
68214;SDS011;55036;52.138;5.236;2023-08-01T14:58:59;3.17;;;1.15;;
68214;SDS011;55036;52.138;5.236;2023-08-01T15:01:26;3.00;;;1.38;;
68214;SDS011;55036;52.138;5.236;2023-08-01T15:03:53;2.75;;;0.93;;
68214;SDS011;55036;52.138;5.236;2023-08-01T15:06:20;6.10;;;1.13;;
68214;SDS011;55036;52.138;5.236;2023-08-01T15:08:47;6.43;;;1.70;;
68214;SDS011;55036;52.138;5.236;2023-08-01T15:11:13;6.50;;;1.73;;
68214;SDS011;55036;52.138;5.236;2023-08-01T15:13:40;6.32;;;1.67;;
68214;SDS011;55036;52.138;5.236;2023-08-01T15:16:10;5.25;;;1.65;;
68214;SDS011;55036;52.138;5.236;2023-08-01T15:18:38;4.55;;;2.08;;
68214;SDS011;55036;52.138;5.236;2023-08-01T15:21:06;8.23;;;1.80;;
68214;SDS011;55036;52.138;5.236;2023-08-01T15:23:33;8.73;;;1.90;;
68214;SDS011;55036;52.138;5.236;2023-08-01T15:25:59;5.78;;;2.00;;
68214;SDS011;55036;52.138;5.236;2023-08-01T15:28:26;5.63;;;1.80;;
68214;SDS011;55036;52.138;5.236;2023-08-01T15:31:03;7.70;;;1.63;;